Wileyville, West Virginia
Current Conditions -  °F | °C
As of 11:53 AM on Friday 19 Dec 2014 (Local Time) from KCKB Reporting Station
Overcast Overcast  
Wind Chill: -6°   Ceiling: 2300
Heat Index: -2°   Visibility: 9mi
Dew Point: -5°   Wind: 7mph
Humidity: 78%   Direction: 230°SW
Pressure: 30.22"   Gusts: NA
Location:  39.63°N, 80.67°W
Report Text: KCKB 191653Z 23006KT 9SM OVC023 M02/M05 A3022 RMK AO2 SLP244 T10171050
Loading
Personal Weather Stations






























Interactive Weather Map New forecast layout! Learn more

10-Day Weather Forecast

Advertisements
Track Severe Weather on mobile